createdAt,value
2022-09-28T00:01:25.506Z,8.00
2022-09-28T00:03:59.675Z,8.00
2022-09-28T00:06:31.448Z,8.00
2022-09-28T00:09:01.860Z,8.00
2022-09-28T00:11:32.182Z,8.00
2022-09-28T00:14:03.836Z,8.00
2022-09-28T00:16:37.809Z,8.00
2022-09-28T00:19:08.187Z,8.00
2022-09-28T00:21:38.727Z,8.00
2022-09-28T00:24:17.355Z,8.00
2022-09-28T00:26:49.216Z,8.10
2022-09-28T00:29:23.821Z,8.00
2022-09-28T00:32:03.250Z,8.00
2022-09-28T00:34:34.688Z,8.00
2022-09-28T00:37:05.482Z,8.10
2022-09-28T00:39:35.840Z,8.10
2022-09-28T00:42:06.558Z,8.10
2022-09-28T00:44:38.550Z,8.10
2022-09-28T00:47:19.737Z,8.10
2022-09-28T00:50:05.411Z,8.10
2022-09-28T00:52:42.985Z,8.10
2022-09-28T00:55:14.544Z,8.10
2022-09-28T00:57:46.040Z,8.10
2022-09-28T01:00:15.712Z,8.10
2022-09-28T01:02:46.370Z,8.10
2022-09-28T01:05:15.561Z,8.10
2022-09-28T01:07:48.206Z,8.20
2022-09-28T01:10:17.063Z,8.20
2022-09-28T01:12:45.584Z,8.10
2022-09-28T01:15:15.553Z,8.10
2022-09-28T01:17:59.176Z,8.10
2022-09-28T01:20:37.437Z,8.10
2022-09-28T01:23:39.115Z,8.10
2022-09-28T01:26:31.667Z,8.10
2022-09-28T01:29:18.505Z,8.10
2022-09-28T01:31:50.243Z,8.10
2022-09-28T01:34:22.189Z,8.00
2022-09-28T01:36:53.757Z,8.00
2022-09-28T01:39:31.271Z,8.00
2022-09-28T01:42:03.005Z,8.00
2022-09-28T01:44:36.170Z,8.00
2022-09-28T01:47:09.769Z,7.90
2022-09-28T01:49:46.835Z,8.00
2022-09-28T01:52:18.565Z,8.00
2022-09-28T01:55:05.097Z,8.00
2022-09-28T01:57:45.354Z,8.00
2022-09-28T02:00:16.166Z,7.90
2022-09-28T02:02:52.406Z,7.80
2022-09-28T02:05:32.854Z,7.80
2022-09-28T02:08:15.799Z,7.80
2022-09-28T02:10:50.144Z,7.80
2022-09-28T02:13:24.714Z,7.70
2022-09-28T02:15:56.370Z,7.70
2022-09-28T02:18:24.990Z,7.70
2022-09-28T02:20:59.205Z,7.60
2022-09-28T02:23:31.049Z,7.60
2022-09-28T02:26:05.285Z,7.60
2022-09-28T02:28:33.814Z,7.60
2022-09-28T02:31:03.917Z,7.50
2022-09-28T02:33:41.952Z,7.50
2022-09-28T02:36:11.545Z,7.60
2022-09-28T02:38:40.259Z,7.50
2022-09-28T02:41:11.880Z,7.60
2022-09-28T02:43:55.294Z,7.60
2022-09-28T02:46:32.615Z,7.60
2022-09-28T02:49:27.893Z,7.60
2022-09-28T02:52:05.164Z,7.60
2022-09-28T02:54:59.281Z,7.60
2022-09-28T02:57:45.606Z,7.60
2022-09-28T03:00:19.875Z,7.60
2022-09-28T03:03:00.114Z,7.70
2022-09-28T03:05:43.526Z,7.70
2022-09-28T03:08:27.290Z,7.70
2022-09-28T03:10:58.936Z,7.70
2022-09-28T03:13:29.135Z,7.70
2022-09-28T03:16:33.826Z,7.70
2022-09-28T03:19:02.383Z,7.70
2022-09-28T03:21:30.958Z,7.70
2022-09-28T03:23:59.612Z,7.70
2022-09-28T03:26:28.142Z,7.60
2022-09-28T03:28:56.718Z,7.70
2022-09-28T03:31:26.004Z,7.60
2022-09-28T03:33:55.729Z,7.60
2022-09-28T03:36:24.252Z,7.60
2022-09-28T03:38:56.078Z,7.60
2022-09-28T03:41:30.542Z,7.60
2022-09-28T03:43:59.060Z,7.60
2022-09-28T03:46:27.613Z,7.60
2022-09-28T03:48:59.168Z,7.60
2022-09-28T03:51:27.788Z,7.60
2022-09-28T03:53:56.259Z,7.70
2022-09-28T03:56:24.786Z,7.70
2022-09-28T03:58:53.349Z,7.70
2022-09-28T04:01:22.014Z,7.70
2022-09-28T04:03:54.043Z,7.70
2022-09-28T04:06:23.064Z,7.70
2022-09-28T04:08:51.587Z,7.70
2022-09-28T04:11:20.118Z,7.70
2022-09-28T04:13:51.810Z,7.70
2022-09-28T04:16:20.338Z,7.70
2022-09-28T04:18:48.879Z,7.70
2022-09-28T04:21:19.516Z,7.70
2022-09-28T04:23:49.301Z,7.80
2022-09-28T04:26:26.698Z,7.90
2022-09-28T04:29:13.128Z,7.90
2022-09-28T04:31:49.755Z,7.90
2022-09-28T04:34:21.245Z,7.90
2022-09-28T04:36:50.547Z,7.80
2022-09-28T04:39:19.928Z,7.80
2022-09-28T04:41:49.702Z,7.80
2022-09-28T04:44:18.684Z,7.70
2022-09-28T04:46:47.207Z,7.60
2022-09-28T04:49:15.843Z,7.60
2022-09-28T04:51:44.569Z,7.60
2022-09-28T04:54:13.240Z,7.50
2022-09-28T04:56:41.763Z,7.50
2022-09-28T04:59:10.311Z,7.50
2022-09-28T05:01:38.828Z,7.50
2022-09-28T05:04:07.281Z,7.40
2022-09-28T05:06:35.721Z,7.30
2022-09-28T05:09:04.335Z,7.30
2022-09-28T05:11:32.886Z,7.30
2022-09-28T05:14:01.553Z,7.30
2022-09-28T05:16:31.800Z,7.30
2022-09-28T05:19:00.669Z,7.40
2022-09-28T05:21:29.875Z,7.40
2022-09-28T05:23:58.716Z,7.40
2022-09-28T05:26:27.390Z,7.50
2022-09-28T05:28:56.093Z,7.50
2022-09-28T05:31:24.558Z,7.50
2022-09-28T05:33:53.510Z,7.50
2022-09-28T05:36:22.378Z,7.50
2022-09-28T05:38:50.984Z,7.50
2022-09-28T05:41:19.536Z,7.50
2022-09-28T05:43:48.034Z,7.50
2022-09-28T05:46:17.527Z,7.50
2022-09-28T05:48:46.068Z,7.60
2022-09-28T05:51:14.508Z,7.50
2022-09-28T05:53:42.955Z,7.50
2022-09-28T05:56:11.626Z,7.50
2022-09-28T05:58:40.260Z,7.50
2022-09-28T06:01:08.878Z,7.50
2022-09-28T06:03:37.297Z,7.60
2022-09-28T06:06:05.934Z,7.60
2022-09-28T06:08:34.515Z,7.60
2022-09-28T06:11:03.679Z,7.60
2022-09-28T06:13:33.814Z,7.60
2022-09-28T06:16:04.140Z,7.60
2022-09-28T06:18:32.576Z,7.60
2022-09-28T06:21:01.777Z,7.60
2022-09-28T06:23:30.236Z,7.60
2022-09-28T06:26:00.513Z,7.70
2022-09-28T06:28:29.030Z,7.70
2022-09-28T06:30:59.171Z,7.70
2022-09-28T06:33:27.862Z,7.80
2022-09-28T06:35:56.554Z,7.70
2022-09-28T06:38:25.184Z,7.80
2022-09-28T06:40:53.765Z,7.90
2022-09-28T06:43:22.355Z,7.90
2022-09-28T06:45:54.571Z,8.00
2022-09-28T06:48:23.090Z,8.10
2022-09-28T06:50:51.684Z,7.90
2022-09-28T06:53:20.257Z,8.10
2022-09-28T06:55:49.045Z,8.20
2022-09-28T06:58:22.167Z,8.20
2022-09-28T07:00:52.532Z,8.30
2022-09-28T07:03:23.072Z,8.30
2022-09-28T07:05:54.018Z,8.50
2022-09-28T07:08:25.869Z,8.60
2022-09-28T07:10:57.877Z,8.50
2022-09-28T07:13:49.445Z,8.50
2022-09-28T07:16:01.613Z,8.50
2022-09-28T07:18:30.212Z,8.50
2022-09-28T07:20:59.485Z,8.70
2022-09-28T07:23:29.743Z,8.70
2022-09-28T07:25:58.740Z,8.90
2022-09-28T07:28:27.256Z,9.10
2022-09-28T07:30:57.880Z,9.00
2022-09-28T07:33:28.185Z,9.10
2022-09-28T07:35:57.048Z,9.00
2022-09-28T07:38:26.100Z,9.00
2022-09-28T07:41:13.956Z,8.70
2022-09-28T07:43:42.910Z,8.80
2022-09-28T07:46:13.900Z,8.80
2022-09-28T07:48:45.558Z,8.90
2022-09-28T07:51:14.901Z,9.00
2022-09-28T07:53:43.491Z,9.20
2022-09-28T07:56:13.647Z,9.30
2022-09-28T07:58:42.961Z,9.20
2022-09-28T08:01:14.304Z,8.90
2022-09-28T08:03:47.992Z,8.90
2022-09-28T08:06:17.538Z,8.90
2022-09-28T08:08:46.184Z,8.90
2022-09-28T08:11:17.652Z,9.00
2022-09-28T08:13:47.221Z,9.00
2022-09-28T08:16:15.748Z,8.80
2022-09-28T08:18:44.320Z,8.90
2022-09-28T08:21:30.687Z,8.90
2022-09-28T08:23:59.144Z,8.90
2022-09-28T08:26:28.988Z,9.00
2022-09-28T08:28:57.657Z,9.30
2022-09-28T08:31:26.115Z,9.30
2022-09-28T08:33:55.194Z,9.10
2022-09-28T08:36:24.062Z,9.20
2022-09-28T08:38:52.573Z,9.40
2022-09-28T08:41:42.078Z,9.30
2022-09-28T08:44:24.508Z,9.60
2022-09-28T08:47:01.701Z,9.30
2022-09-28T08:49:38.989Z,9.50
2022-09-28T08:52:10.501Z,9.50
2022-09-28T08:54:54.411Z,9.30
2022-09-28T08:57:37.999Z,9.60
2022-09-28T09:00:11.049Z,9.60
2022-09-28T09:02:39.719Z,9.80
2022-09-28T09:05:14.635Z,10.10
2022-09-28T09:07:51.768Z,10.00
2022-09-28T09:10:50.238Z,9.70
2022-09-28T09:13:33.659Z,9.90
2022-09-28T09:16:05.175Z,10.00
2022-09-28T09:18:39.777Z,9.80
2022-09-28T09:21:16.925Z,10.00
2022-09-28T09:23:56.667Z,9.80
2022-09-28T09:26:38.759Z,9.70
2022-09-28T09:29:11.532Z,9.90
2022-09-28T09:31:54.681Z,9.90
2022-09-28T09:34:32.106Z,10.00
2022-09-28T09:37:03.986Z,10.10
2022-09-28T09:39:41.337Z,10.10
2022-09-28T09:42:26.574Z,10.30
2022-09-28T09:45:14.403Z,9.90
2022-09-28T09:47:47.551Z,10.20
2022-09-28T09:50:38.645Z,10.40
2022-09-28T09:53:28.353Z,10.20
2022-09-28T09:56:21.459Z,10.20
2022-09-28T09:58:53.213Z,9.80
2022-09-28T10:01:24.769Z,9.50
2022-09-28T10:03:53.557Z,9.40
2022-09-28T10:06:27.190Z,9.40
2022-09-28T10:09:16.202Z,9.40
2022-09-28T10:11:48.746Z,9.40
2022-09-28T10:14:22.944Z,9.60
2022-09-28T10:16:53.623Z,9.60
2022-09-28T10:19:25.308Z,9.50
2022-09-28T10:21:54.942Z,9.50
2022-09-28T10:24:29.166Z,9.60
2022-09-28T10:27:00.711Z,9.90
2022-09-28T10:29:32.260Z,10.00
2022-09-28T10:32:00.920Z,9.70
2022-09-28T10:34:31.312Z,9.80
2022-09-28T10:37:03.149Z,10.00
2022-09-28T10:39:40.243Z,10.20
2022-09-28T10:42:15.110Z,9.80
2022-09-28T10:44:58.805Z,10.10
2022-09-28T10:47:31.736Z,10.00
2022-09-28T10:50:01.301Z,10.10
2022-09-28T10:52:41.720Z,10.10
2022-09-28T10:55:25.350Z,10.00
2022-09-28T10:57:54.175Z,9.90
2022-09-28T11:00:43.822Z,9.90
2022-09-28T11:03:27.470Z,10.10
2022-09-28T11:06:01.417Z,9.80
2022-09-28T11:08:33.154Z,10.10
2022-09-28T11:11:07.544Z,9.90
2022-09-28T11:13:50.669Z,9.80
2022-09-28T11:16:28.613Z,9.70
2022-09-28T11:18:59.228Z,10.00
2022-09-28T11:21:32.649Z,10.50
2022-09-28T11:24:07.374Z,10.40
2022-09-28T11:26:45.340Z,10.60
2022-09-28T11:29:28.815Z,10.70
2022-09-28T11:32:06.117Z,11.30
2022-09-28T11:34:58.756Z,11.40
2022-09-28T11:37:24.627Z,10.80
2022-09-28T11:40:08.120Z,10.90
2022-09-28T11:42:53.944Z,10.50
2022-09-28T11:45:51.272Z,10.50
2022-09-28T11:48:39.343Z,10.90
2022-09-28T11:51:11.023Z,10.90
2022-09-28T11:53:45.563Z,11.10
2022-09-28T11:56:40.907Z,11.40
2022-09-28T11:59:29.197Z,10.80
2022-09-28T12:02:20.302Z,11.00
2022-09-28T12:05:00.631Z,11.10
2022-09-28T12:07:32.189Z,11.30
2022-09-28T12:10:23.982Z,11.40
2022-09-28T12:13:18.632Z,11.70
2022-09-28T12:18:49.005Z,12.10
2022-09-28T12:21:46.082Z,12.80
2022-09-28T12:24:17.608Z,12.30
2022-09-28T12:26:54.574Z,12.80
2022-09-28T12:29:29.043Z,12.70
2022-09-28T12:32:12.286Z,12.60
2022-09-28T12:34:43.204Z,12.60
2022-09-28T12:37:26.351Z,12.60
2022-09-28T12:40:15.950Z,13.30
2022-09-28T12:43:03.223Z,13.90
2022-09-28T12:46:10.381Z,14.00
2022-09-28T12:48:58.408Z,14.40
2022-09-28T12:51:39.670Z,14.70
2022-09-28T12:54:11.422Z,14.40
2022-09-28T12:57:00.158Z,14.00
2022-09-28T12:59:34.412Z,13.60
2022-09-28T13:02:25.340Z,13.60
2022-09-28T13:05:05.668Z,13.20
2022-09-28T13:07:50.495Z,13.40
2022-09-28T13:10:29.896Z,13.40
2022-09-28T13:13:10.361Z,13.70
2022-09-28T13:15:42.723Z,14.10
2022-09-28T13:18:17.385Z,14.10
2022-09-28T13:21:00.672Z,14.20
2022-09-28T13:23:32.243Z,14.10
2022-09-28T13:26:23.521Z,14.20
2022-09-28T13:28:54.655Z,14.00
2022-09-28T13:31:30.866Z,13.80
2022-09-28T13:34:00.467Z,13.50
2022-09-28T13:36:34.734Z,13.20
2022-09-28T13:39:04.139Z,13.30
2022-09-28T13:41:38.626Z,13.30
2022-09-28T13:44:20.258Z,13.40
2022-09-28T13:46:57.481Z,13.50
2022-09-28T13:49:45.519Z,14.20
2022-09-28T13:52:43.349Z,14.00
2022-09-28T13:55:20.351Z,13.80
2022-09-28T13:57:54.649Z,13.40
2022-09-28T14:00:31.820Z,12.80
2022-09-28T14:03:15.468Z,12.20
2022-09-28T14:05:56.174Z,11.90
2022-09-28T14:08:31.336Z,11.90
2022-09-28T14:11:19.444Z,12.00
2022-09-28T14:14:14.123Z,11.80
2022-09-28T14:16:44.411Z,11.80
2022-09-28T14:19:31.253Z,12.10
2022-09-28T14:22:32.476Z,12.50
2022-09-28T14:25:20.413Z,13.20
2022-09-28T14:28:04.837Z,13.30
2022-09-28T14:30:48.471Z,13.60
2022-09-28T14:33:26.136Z,13.70
2022-09-28T14:36:01.936Z,13.60
2022-09-28T14:38:51.428Z,13.80
2022-09-28T14:41:34.938Z,14.30
2022-09-28T14:44:12.059Z,14.30
2022-09-28T14:46:45.526Z,14.20
2022-09-28T14:49:20.083Z,14.40
2022-09-28T14:51:57.756Z,14.00
2022-09-28T14:54:28.444Z,16.80
2022-09-28T14:57:18.124Z,19.60
2022-09-28T14:59:47.754Z,20.80
2022-09-28T15:02:24.897Z,20.40
2022-09-28T15:05:02.301Z,20.80
2022-09-28T15:07:35.491Z,21.20
2022-09-28T15:10:04.025Z,20.60
2022-09-28T15:12:32.715Z,20.50
2022-09-28T15:15:08.501Z,19.60
2022-09-28T15:17:40.443Z,20.00
2022-09-28T15:20:16.200Z,19.60
2022-09-28T15:22:49.415Z,20.00
2022-09-28T15:25:20.830Z,17.10
2022-09-28T15:27:54.865Z,15.30
2022-09-28T15:30:36.608Z,14.60
2022-09-28T15:33:23.825Z,14.00
2022-09-28T15:36:04.024Z,13.80
2022-09-28T15:38:33.893Z,13.80
2022-09-28T15:41:04.853Z,13.90
2022-09-28T15:43:36.457Z,13.80
2022-09-28T15:46:11.088Z,13.50
2022-09-28T15:48:52.668Z,13.30
2022-09-28T15:51:22.385Z,13.20
2022-09-28T15:53:58.257Z,13.10
2022-09-28T15:56:27.895Z,13.00
2022-09-28T15:59:17.359Z,12.70
2022-09-28T16:01:46.544Z,12.60
2022-09-28T16:04:51.502Z,12.40
2022-09-28T16:07:41.510Z,12.20
2022-09-28T16:10:16.407Z,12.00
2022-09-28T16:12:54.179Z,11.90
2022-09-28T16:15:31.835Z,11.80
2022-09-28T16:18:09.378Z,11.80
2022-09-28T16:20:40.350Z,11.70
2022-09-28T16:23:24.111Z,11.60
2022-09-28T16:26:04.637Z,11.60
2022-09-28T16:28:39.166Z,11.40
2022-09-28T16:31:16.750Z,11.30
2022-09-28T16:33:56.144Z,11.30
2022-09-28T16:36:29.088Z,11.20
2022-09-28T16:38:57.817Z,11.20
2022-09-28T16:41:29.114Z,11.20
2022-09-28T16:44:02.811Z,11.00
2022-09-28T16:46:37.739Z,11.10
2022-09-28T16:49:08.280Z,11.20
2022-09-28T16:51:38.375Z,11.10
2022-09-28T16:54:33.375Z,11.00
2022-09-28T16:57:02.683Z,10.90
2022-09-28T16:59:31.596Z,10.90
2022-09-28T17:02:00.312Z,10.90
2022-09-28T17:04:28.903Z,10.80
2022-09-28T17:06:58.290Z,10.70
2022-09-28T17:09:26.996Z,10.70
2022-09-28T17:11:55.976Z,10.70
2022-09-28T17:14:25.282Z,10.60
2022-09-28T17:17:13.886Z,10.70
2022-09-28T17:19:28.045Z,10.70
2022-09-28T17:21:56.701Z,10.80
2022-09-28T17:24:26.874Z,10.80
2022-09-28T17:26:55.776Z,10.80
2022-09-28T17:29:24.322Z,10.90
2022-09-28T17:31:53.830Z,10.90
2022-09-28T17:34:23.007Z,10.90
2022-09-28T17:36:52.271Z,11.00
2022-09-28T17:39:21.084Z,11.00
2022-09-28T17:41:49.605Z,10.90
2022-09-28T17:44:19.043Z,10.90
2022-09-28T17:46:49.629Z,10.90
2022-09-28T17:49:18.581Z,10.90
2022-09-28T17:51:47.104Z,10.90
2022-09-28T17:54:17.168Z,10.80
2022-09-28T17:56:46.092Z,10.80
2022-09-28T17:59:17.094Z,10.70
2022-09-28T18:01:45.895Z,10.70
2022-09-28T18:04:39.746Z,10.60
2022-09-28T18:06:46.418Z,10.60
2022-09-28T18:09:19.534Z,10.60
2022-09-28T18:11:49.871Z,10.60
2022-09-28T18:14:18.429Z,10.50
2022-09-28T18:16:46.935Z,10.40
2022-09-28T18:19:15.445Z,10.40
2022-09-28T18:21:44.072Z,10.40
2022-09-28T18:24:13.036Z,10.30
2022-09-28T18:26:41.555Z,10.30
2022-09-28T18:29:10.033Z,10.30
2022-09-28T18:31:38.681Z,10.20
2022-09-28T18:34:09.012Z,10.20
2022-09-28T18:36:38.515Z,10.10
2022-09-28T18:39:07.097Z,10.00
2022-09-28T18:41:35.644Z,10.00
2022-09-28T18:44:05.375Z,10.00
2022-09-28T18:46:35.639Z,10.00
2022-09-28T18:49:05.333Z,9.90
2022-09-28T18:51:34.040Z,9.90
2022-09-28T18:54:07.069Z,9.90
2022-09-28T18:56:37.869Z,9.80
2022-09-28T18:59:11.966Z,9.70
2022-09-28T19:01:39.348Z,9.60
2022-09-28T19:04:10.302Z,9.60
2022-09-28T19:06:41.632Z,9.50
2022-09-28T19:09:10.884Z,9.60
2022-09-28T19:11:39.389Z,9.40
2022-09-28T19:14:10.955Z,9.40
2022-09-28T19:16:39.476Z,9.30
2022-09-28T19:19:11.354Z,9.30
2022-09-28T19:21:40.901Z,9.30
2022-09-28T19:24:14.626Z,9.20
2022-09-28T19:26:46.359Z,9.20
2022-09-28T19:29:15.645Z,9.30
2022-09-28T19:31:44.291Z,9.20
2022-09-28T19:34:14.169Z,9.20
2022-09-28T19:36:43.206Z,9.10
2022-09-28T19:39:16.214Z,9.00
2022-09-28T19:41:52.390Z,8.90
2022-09-28T19:44:27.233Z,8.80
2022-09-28T19:47:07.972Z,8.70
2022-09-28T19:49:38.244Z,8.70
2022-09-28T19:52:14.776Z,8.70
2022-09-28T19:54:48.212Z,8.80
2022-09-28T19:57:18.413Z,8.70
2022-09-28T19:59:52.025Z,8.70
2022-09-28T20:02:17.199Z,8.70
2022-09-28T20:04:45.690Z,8.70
2022-09-28T20:07:14.485Z,8.70
2022-09-28T20:09:43.279Z,8.70
2022-09-28T20:12:11.769Z,8.70
2022-09-28T20:14:40.630Z,8.60
2022-09-28T20:17:09.965Z,8.50
2022-09-28T20:19:38.468Z,8.50
2022-09-28T20:22:07.085Z,8.50
2022-09-28T20:24:35.601Z,8.50
2022-09-28T20:27:04.041Z,8.40
2022-09-28T20:29:32.983Z,8.40
2022-09-28T20:32:01.962Z,8.40
2022-09-28T20:34:30.739Z,8.50
2022-09-28T20:36:59.169Z,8.50
2022-09-28T20:39:27.643Z,8.40
2022-09-28T20:41:57.549Z,8.30
2022-09-28T20:44:26.060Z,8.40
2022-09-28T20:46:54.501Z,8.40
2022-09-28T20:49:23.037Z,8.30
2022-09-28T20:51:51.598Z,8.20
2022-09-28T20:54:21.140Z,8.20
2022-09-28T20:56:49.708Z,8.30
2022-09-28T20:59:18.445Z,8.30
2022-09-28T21:01:47.016Z,8.30
2022-09-28T21:04:15.612Z,8.30
2022-09-28T21:06:44.378Z,8.30
2022-09-28T21:09:13.274Z,8.30
2022-09-28T21:11:41.856Z,8.40
2022-09-28T21:14:10.551Z,8.40
2022-09-28T21:16:39.577Z,8.40
2022-09-28T21:19:08.194Z,8.40
2022-09-28T21:21:36.722Z,8.40
2022-09-28T21:24:05.313Z,8.30
2022-09-28T21:26:34.960Z,8.40
2022-09-28T21:29:06.486Z,8.30
2022-09-28T21:31:44.717Z,8.30
2022-09-28T21:34:19.549Z,8.20
2022-09-28T21:36:51.183Z,8.20
2022-09-28T21:39:20.242Z,8.20
2022-09-28T21:41:48.857Z,8.20
2022-09-28T21:44:17.622Z,8.30
2022-09-28T21:46:46.249Z,8.20
2022-09-28T21:49:14.789Z,8.20
2022-09-28T21:51:43.532Z,8.10
2022-09-28T21:54:12.228Z,8.10
2022-09-28T21:56:40.779Z,8.20
2022-09-28T21:59:09.245Z,8.10
2022-09-28T22:01:37.974Z,8.10
2022-09-28T22:04:06.811Z,8.10
2022-09-28T22:06:35.368Z,8.10
2022-09-28T22:09:05.255Z,8.00
2022-09-28T22:11:33.718Z,8.00
2022-09-28T22:14:02.242Z,8.00
2022-09-28T22:16:32.697Z,8.00
2022-09-28T22:19:01.421Z,7.90
2022-09-28T22:21:33.177Z,7.70
2022-09-28T22:24:04.132Z,7.90
2022-09-28T22:26:35.332Z,7.80
2022-09-28T22:29:06.465Z,7.80
2022-09-28T22:31:37.806Z,7.70
2022-09-28T22:34:07.429Z,7.70
2022-09-28T22:36:36.289Z,7.80
2022-09-28T22:39:05.082Z,7.70
2022-09-28T22:41:33.795Z,7.80
2022-09-28T22:44:02.417Z,7.70
2022-09-28T22:46:32.381Z,7.60
2022-09-28T22:49:01.685Z,7.40
2022-09-28T22:51:31.313Z,7.50
2022-09-28T22:54:00.205Z,7.60
2022-09-28T22:56:28.859Z,7.50
2022-09-28T22:58:57.737Z,7.60
2022-09-28T23:01:28.861Z,7.50
2022-09-28T23:03:59.191Z,7.50
2022-09-28T23:06:30.622Z,7.40
2022-09-28T23:08:59.428Z,7.50
2022-09-28T23:11:29.071Z,7.40
2022-09-28T23:13:59.627Z,7.40
2022-09-28T23:16:30.081Z,7.40
2022-09-28T23:18:58.887Z,7.30
2022-09-28T23:21:28.310Z,7.30
2022-09-28T23:23:59.462Z,7.30
2022-09-28T23:26:30.543Z,7.40
2022-09-28T23:28:59.980Z,7.40
2022-09-28T23:31:31.594Z,7.50
2022-09-28T23:34:02.875Z,7.40
2022-09-28T23:36:31.654Z,7.40
2022-09-28T23:39:00.253Z,7.40
2022-09-28T23:41:28.922Z,7.50
2022-09-28T23:43:57.695Z,7.40
2022-09-28T23:46:26.243Z,7.40
2022-09-28T23:48:54.904Z,7.30
2022-09-28T23:51:23.365Z,7.30
2022-09-28T23:53:51.890Z,7.20
2022-09-28T23:56:21.157Z,7.10
2022-09-28T23:58:49.632Z,7.00
